sensor_id;sensor_type;location;lat;lon;timestamp;pressure;altitude;pressure_sealevel;temperature;humidity
38400;BME280;24180;42.676;23.320;2022-12-28T00:01:21;95746.13;;;7.62;100.00
38400;BME280;24180;42.676;23.320;2022-12-28T00:03:48;95751.19;;;7.64;100.00
38400;BME280;24180;42.676;23.320;2022-12-28T00:06:14;95763.75;;;7.68;100.00
38400;BME280;24180;42.676;23.320;2022-12-28T00:08:40;95768.31;;;7.65;100.00
38400;BME280;24180;42.676;23.320;2022-12-28T00:11:08;95759.66;;;7.66;100.00
38400;BME280;24180;42.676;23.320;2022-12-28T00:13:35;95727.88;;;7.52;100.00
38400;BME280;24180;42.676;23.320;2022-12-28T00:16:08;95726.22;;;7.51;100.00
38400;BME280;24180;42.676;23.320;2022-12-28T00:18:35;95765.22;;;7.85;100.00
38400;BME280;24180;42.676;23.320;2022-12-28T00:21:01;95749.66;;;7.74;100.00
38400;BME280;24180;42.676;23.320;2022-12-28T00:23:28;95758.72;;;7.79;100.00
38400;BME280;24180;42.676;23.320;2022-12-28T00:25:53;95764.16;;;7.75;100.00
38400;BME280;24180;42.676;23.320;2022-12-28T00:28:19;95739.41;;;7.60;100.00
38400;BME280;24180;42.676;23.320;2022-12-28T00:30:45;95749.44;;;7.64;100.00
38400;BME280;24180;42.676;23.320;2022-12-28T00:33:10;95776.66;;;7.81;100.00
38400;BME280;24180;42.676;23.320;2022-12-28T00:35:36;95778.41;;;7.80;100.00
38400;BME280;24180;42.676;23.320;2022-12-28T00:38:01;95755.63;;;7.62;100.00
38400;BME280;24180;42.676;23.320;2022-12-28T00:40:26;95795.63;;;7.80;100.00
38400;BME280;24180;42.676;23.320;2022-12-28T00:42:52;95755.19;;;7.55;100.00
38400;BME280;24180;42.676;23.320;2022-12-28T00:45:17;95771.91;;;7.62;100.00
38400;BME280;24180;42.676;23.320;2022-12-28T00:47:43;95794.59;;;7.70;100.00
38400;BME280;24180;42.676;23.320;2022-12-28T00:50:08;95796.06;;;7.74;100.00
38400;BME280;24180;42.676;23.320;2022-12-28T00:52:34;95798.09;;;7.69;100.00
38400;BME280;24180;42.676;23.320;2022-12-28T00:54:59;95778.28;;;7.57;100.00
38400;BME280;24180;42.676;23.320;2022-12-28T00:57:25;95801.50;;;7.69;100.00
38400;BME280;24180;42.676;23.320;2022-12-28T00:59:51;95799.84;;;7.68;100.00
38400;BME280;24180;42.676;23.320;2022-12-28T01:02:16;95801.28;;;7.60;100.00
38400;BME280;24180;42.676;23.320;2022-12-28T01:04:42;95787.84;;;7.54;100.00
38400;BME280;24180;42.676;23.320;2022-12-28T01:07:07;95808.81;;;7.63;100.00
38400;BME280;24180;42.676;23.320;2022-12-28T01:09:33;95771.84;;;7.37;100.00
38400;BME280;24180;42.676;23.320;2022-12-28T01:11:58;95803.00;;;7.46;100.00
38400;BME280;24180;42.676;23.320;2022-12-28T01:14:23;95792.69;;;7.46;100.00
38400;BME280;24180;42.676;23.320;2022-12-28T01:16:49;95755.81;;;7.19;100.00
38400;BME280;24180;42.676;23.320;2022-12-28T01:19:18;95787.03;;;7.41;100.00
38400;BME280;24180;42.676;23.320;2022-12-28T01:21:47;95753.03;;;7.22;100.00
38400;BME280;24180;42.676;23.320;2022-12-28T01:24:13;95752.88;;;7.25;100.00
38400;BME280;24180;42.676;23.320;2022-12-28T01:26:38;95750.34;;;7.11;100.00
38400;BME280;24180;42.676;23.320;2022-12-28T01:29:04;95779.88;;;7.32;100.00
38400;BME280;24180;42.676;23.320;2022-12-28T01:31:29;95778.41;;;7.28;100.00
38400;BME280;24180;42.676;23.320;2022-12-28T01:33:55;95780.72;;;7.33;100.00
38400;BME280;24180;42.676;23.320;2022-12-28T01:36:25;95794.09;;;7.25;100.00
38400;BME280;24180;42.676;23.320;2022-12-28T01:38:56;95765.41;;;6.90;100.00
38400;BME280;24180;42.676;23.320;2022-12-28T01:41:23;95704.16;;;6.69;100.00
38400;BME280;24180;42.676;23.320;2022-12-28T01:46:44;95777.16;;;7.21;100.00
38400;BME280;24180;42.676;23.320;2022-12-28T01:49:30;95778.09;;;7.20;100.00
38400;BME280;24180;42.676;23.320;2022-12-28T01:54:57;95777.13;;;7.09;100.00
38400;BME280;24180;42.676;23.320;2022-12-28T01:57:29;95749.81;;;6.79;100.00
38400;BME280;24180;42.676;23.320;2022-12-28T02:00:00;95723.38;;;6.63;100.00
38400;BME280;24180;42.676;23.320;2022-12-28T02:02:27;95774.75;;;7.05;100.00
38400;BME280;24180;42.676;23.320;2022-12-28T02:04:53;95773.81;;;7.06;100.00
38400;BME280;24180;42.676;23.320;2022-12-28T02:07:34;95772.25;;;7.04;100.00
38400;BME280;24180;42.676;23.320;2022-12-28T02:10:02;95744.56;;;6.81;100.00
38400;BME280;24180;42.676;23.320;2022-12-28T02:12:28;95765.94;;;6.95;100.00
38400;BME280;24180;42.676;23.320;2022-12-28T02:14:53;95733.72;;;6.76;100.00
38400;BME280;24180;42.676;23.320;2022-12-28T02:17:19;95728.78;;;6.73;100.00
38400;BME280;24180;42.676;23.320;2022-12-28T02:19:46;95746.22;;;6.82;100.00
38400;BME280;24180;42.676;23.320;2022-12-28T02:22:54;95765.31;;;6.92;100.00
38400;BME280;24180;42.676;23.320;2022-12-28T02:31:56;95738.97;;;6.74;100.00
38400;BME280;24180;42.676;23.320;2022-12-28T02:34:15;95747.50;;;6.75;100.00
38400;BME280;24180;42.676;23.320;2022-12-28T02:36:49;95723.19;;;6.66;100.00
38400;BME280;24180;42.676;23.320;2022-12-28T02:39:21;95745.69;;;6.77;100.00
38400;BME280;24180;42.676;23.320;2022-12-28T02:41:50;95710.78;;;6.58;100.00
38400;BME280;24180;42.676;23.320;2022-12-28T02:44:16;95740.00;;;6.72;100.00
38400;BME280;24180;42.676;23.320;2022-12-28T02:47:02;95746.06;;;6.71;100.00
38400;BME280;24180;42.676;23.320;2022-12-28T02:49:47;95750.38;;;6.70;100.00
38400;BME280;24180;42.676;23.320;2022-12-28T03:12:04;95730.81;;;6.68;100.00
38400;BME280;24180;42.676;23.320;2022-12-28T03:14:43;95726.56;;;6.67;100.00
38400;BME280;24180;42.676;23.320;2022-12-28T03:17:11;95709.25;;;6.56;100.00
38400;BME280;24180;42.676;23.320;2022-12-28T03:20:00;95740.47;;;6.64;100.00
38400;BME280;24180;42.676;23.320;2022-12-28T03:22:48;95745.34;;;6.69;100.00
38400;BME280;24180;42.676;23.320;2022-12-28T03:25:37;95759.66;;;6.73;100.00
38400;BME280;24180;42.676;23.320;2022-12-28T03:28:26;95726.44;;;6.55;100.00
38400;BME280;24180;42.676;23.320;2022-12-28T03:31:17;95738.19;;;6.59;100.00
38400;BME280;24180;42.676;23.320;2022-12-28T03:33:46;95746.66;;;6.62;100.00
38400;BME280;24180;42.676;23.320;2022-12-28T03:36:47;95754.53;;;6.58;100.00
38400;BME280;24180;42.676;23.320;2022-12-28T03:39:22;95735.75;;;6.44;100.00
38400;BME280;24180;42.676;23.320;2022-12-28T03:41:54;95774.97;;;6.62;100.00
38400;BME280;24180;42.676;23.320;2022-12-28T03:44:47;95737.59;;;6.28;100.00
38400;BME280;24180;42.676;23.320;2022-12-28T03:47:16;95737.03;;;6.23;100.00
38400;BME280;24180;42.676;23.320;2022-12-28T03:49:43;95759.56;;;6.33;100.00
38400;BME280;24180;42.676;23.320;2022-12-28T03:52:08;95752.31;;;6.26;100.00
38400;BME280;24180;42.676;23.320;2022-12-28T03:54:35;95731.53;;;6.15;100.00
38400;BME280;24180;42.676;23.320;2022-12-28T03:57:01;95760.03;;;6.26;100.00
38400;BME280;24180;42.676;23.320;2022-12-28T03:59:26;95723.31;;;6.09;100.00
38400;BME280;24180;42.676;23.320;2022-12-28T04:01:51;95744.41;;;6.15;100.00
38400;BME280;24180;42.676;23.320;2022-12-28T04:04:17;95712.34;;;6.06;100.00
38400;BME280;24180;42.676;23.320;2022-12-28T04:06:42;95763.25;;;6.29;100.00
38400;BME280;24180;42.676;23.320;2022-12-28T04:09:08;95757.34;;;6.27;100.00
38400;BME280;24180;42.676;23.320;2022-12-28T04:11:34;95750.72;;;6.23;100.00
38400;BME280;24180;42.676;23.320;2022-12-28T04:13:59;95729.53;;;6.05;100.00
38400;BME280;24180;42.676;23.320;2022-12-28T04:16:24;95719.78;;;6.10;100.00
38400;BME280;24180;42.676;23.320;2022-12-28T04:18:50;95752.94;;;6.29;100.00
38400;BME280;24180;42.676;23.320;2022-12-28T04:21:15;95751.56;;;6.24;100.00
38400;BME280;24180;42.676;23.320;2022-12-28T04:23:41;95764.06;;;6.30;100.00
38400;BME280;24180;42.676;23.320;2022-12-28T04:26:10;95726.22;;;6.03;100.00
38400;BME280;24180;42.676;23.320;2022-12-28T04:28:36;95750.66;;;6.10;100.00
38400;BME280;24180;42.676;23.320;2022-12-28T04:31:03;95774.00;;;6.22;100.00
38400;BME280;24180;42.676;23.320;2022-12-28T04:33:32;95789.31;;;6.37;100.00
38400;BME280;24180;42.676;23.320;2022-12-28T04:36:12;95758.44;;;6.23;100.00
38400;BME280;24180;42.676;23.320;2022-12-28T04:38:38;95738.72;;;6.09;100.00
38400;BME280;24180;42.676;23.320;2022-12-28T04:41:05;95772.41;;;6.33;100.00
38400;BME280;24180;42.676;23.320;2022-12-28T04:43:31;95766.53;;;6.31;100.00
38400;BME280;24180;42.676;23.320;2022-12-28T04:46:00;95763.88;;;6.19;100.00
38400;BME280;24180;42.676;23.320;2022-12-28T04:48:26;95800.88;;;6.44;100.00
38400;BME280;24180;42.676;23.320;2022-12-28T04:50:53;95803.47;;;6.44;100.00
38400;BME280;24180;42.676;23.320;2022-12-28T04:53:19;95778.94;;;6.25;100.00
38400;BME280;24180;42.676;23.320;2022-12-28T04:55:45;95792.06;;;6.48;100.00
38400;BME280;24180;42.676;23.320;2022-12-28T04:58:10;95799.59;;;6.51;100.00
38400;BME280;24180;42.676;23.320;2022-12-28T05:00:36;95776.47;;;6.37;100.00
38400;BME280;24180;42.676;23.320;2022-12-28T05:03:01;95802.16;;;6.51;100.00
38400;BME280;24180;42.676;23.320;2022-12-28T05:05:27;95804.34;;;6.72;100.00
38400;BME280;24180;42.676;23.320;2022-12-28T05:07:53;95799.59;;;6.66;100.00
38400;BME280;24180;42.676;23.320;2022-12-28T05:10:18;95751.81;;;6.47;100.00
38400;BME280;24180;42.676;23.320;2022-12-28T05:12:43;95747.88;;;6.42;100.00
38400;BME280;24180;42.676;23.320;2022-12-28T05:15:09;95793.59;;;6.65;100.00
38400;BME280;24180;42.676;23.320;2022-12-28T05:17:35;95757.78;;;6.48;100.00
38400;BME280;24180;42.676;23.320;2022-12-28T05:20:01;95784.84;;;6.68;100.00
38400;BME280;24180;42.676;23.320;2022-12-28T05:22:27;95786.88;;;6.63;100.00
38400;BME280;24180;42.676;23.320;2022-12-28T05:24:53;95789.09;;;6.69;100.00
38400;BME280;24180;42.676;23.320;2022-12-28T05:27:18;95752.00;;;6.44;100.00
38400;BME280;24180;42.676;23.320;2022-12-28T05:29:43;95784.22;;;6.64;100.00
38400;BME280;24180;42.676;23.320;2022-12-28T05:32:09;95761.19;;;6.48;100.00
38400;BME280;24180;42.676;23.320;2022-12-28T05:34:34;95808.22;;;6.65;100.00
38400;BME280;24180;42.676;23.320;2022-12-28T05:37:00;95809.41;;;6.59;100.00
38400;BME280;24180;42.676;23.320;2022-12-28T05:39:25;95806.22;;;6.41;100.00
38400;BME280;24180;42.676;23.320;2022-12-28T05:41:51;95797.41;;;6.45;100.00
38400;BME280;24180;42.676;23.320;2022-12-28T05:44:16;95820.44;;;6.47;100.00
38400;BME280;24180;42.676;23.320;2022-12-28T05:46:41;95812.38;;;6.53;100.00
38400;BME280;24180;42.676;23.320;2022-12-28T05:49:08;95826.06;;;6.53;100.00
38400;BME280;24180;42.676;23.320;2022-12-28T05:51:33;95820.44;;;6.47;100.00
38400;BME280;24180;42.676;23.320;2022-12-28T05:54:00;95823.28;;;6.42;100.00
38400;BME280;24180;42.676;23.320;2022-12-28T05:56:28;95824.41;;;6.38;100.00
38400;BME280;24180;42.676;23.320;2022-12-28T05:58:59;95790.69;;;6.15;100.00
38400;BME280;24180;42.676;23.320;2022-12-28T06:01:28;95826.25;;;6.36;100.00
38400;BME280;24180;42.676;23.320;2022-12-28T06:03:57;95828.28;;;6.45;100.00
38400;BME280;24180;42.676;23.320;2022-12-28T06:06:23;95793.91;;;6.18;100.00
38400;BME280;24180;42.676;23.320;2022-12-28T06:08:48;95807.22;;;6.25;100.00
38400;BME280;24180;42.676;23.320;2022-12-28T06:11:17;95802.34;;;6.20;100.00
38400;BME280;24180;42.676;23.320;2022-12-28T06:13:43;95810.16;;;6.19;100.00
38400;BME280;24180;42.676;23.320;2022-12-28T06:16:14;95838.66;;;6.30;100.00
38400;BME280;24180;42.676;23.320;2022-12-28T06:18:41;95844.91;;;6.26;100.00
38400;BME280;24180;42.676;23.320;2022-12-28T06:21:09;95839.09;;;6.22;100.00
38400;BME280;24180;42.676;23.320;2022-12-28T06:23:35;95835.97;;;6.17;100.00
38400;BME280;24180;42.676;23.320;2022-12-28T06:26:03;95828.16;;;6.19;100.00
38400;BME280;24180;42.676;23.320;2022-12-28T06:28:29;95801.63;;;6.04;100.00
38400;BME280;24180;42.676;23.320;2022-12-28T06:31:05;95803.16;;;6.06;100.00
38400;BME280;24180;42.676;23.320;2022-12-28T06:33:32;95827.84;;;5.95;100.00
38400;BME280;24180;42.676;23.320;2022-12-28T06:35:58;95830.28;;;6.12;100.00
38400;BME280;24180;42.676;23.320;2022-12-28T06:38:24;95808.03;;;6.11;100.00
38400;BME280;24180;42.676;23.320;2022-12-28T06:40:51;95805.56;;;5.95;100.00
38400;BME280;24180;42.676;23.320;2022-12-28T06:43:16;95845.81;;;6.25;100.00
38400;BME280;24180;42.676;23.320;2022-12-28T06:45:42;95820.19;;;6.09;100.00
38400;BME280;24180;42.676;23.320;2022-12-28T06:48:07;95818.53;;;6.08;100.00
38400;BME280;24180;42.676;23.320;2022-12-28T06:50:33;95856.56;;;6.31;100.00
38400;BME280;24180;42.676;23.320;2022-12-28T06:52:58;95793.06;;;5.89;100.00
38400;BME280;24180;42.676;23.320;2022-12-28T06:55:24;95835.50;;;6.10;100.00
38400;BME280;24180;42.676;23.320;2022-12-28T06:57:49;95835.34;;;6.28;100.00
38400;BME280;24180;42.676;23.320;2022-12-28T07:00:14;95864.66;;;6.39;100.00
38400;BME280;24180;42.676;23.320;2022-12-28T07:02:40;95847.75;;;6.35;100.00
38400;BME280;24180;42.676;23.320;2022-12-28T07:05:05;95849.50;;;6.49;100.00
38400;BME280;24180;42.676;23.320;2022-12-28T07:07:31;95841.03;;;6.47;100.00
38400;BME280;24180;42.676;23.320;2022-12-28T07:09:56;95843.69;;;6.59;100.00
38400;BME280;24180;42.676;23.320;2022-12-28T07:12:22;95837.44;;;6.78;100.00
38400;BME280;24180;42.676;23.320;2022-12-28T07:14:47;95860.03;;;6.87;100.00
38400;BME280;24180;42.676;23.320;2022-12-28T07:17:13;95850.31;;;6.78;100.00
38400;BME280;24180;42.676;23.320;2022-12-28T07:19:38;95826.88;;;6.68;100.00
38400;BME280;24180;42.676;23.320;2022-12-28T07:22:03;95850.13;;;6.81;100.00
38400;BME280;24180;42.676;23.320;2022-12-28T07:24:29;95829.00;;;6.62;100.00
38400;BME280;24180;42.676;23.320;2022-12-28T07:26:54;95817.75;;;6.77;100.00
38400;BME280;24180;42.676;23.320;2022-12-28T07:29:19;95819.56;;;6.89;100.00
38400;BME280;24180;42.676;23.320;2022-12-28T07:31:45;95800.19;;;6.83;100.00
38400;BME280;24180;42.676;23.320;2022-12-28T07:34:11;95831.63;;;7.15;100.00
38400;BME280;24180;42.676;23.320;2022-12-28T07:36:37;95835.47;;;7.22;100.00
38400;BME280;24180;42.676;23.320;2022-12-28T07:39:02;95863.78;;;7.36;100.00
38400;BME280;24180;42.676;23.320;2022-12-28T07:41:30;95868.75;;;7.39;100.00
38400;BME280;24180;42.676;23.320;2022-12-28T07:44:00;95853.69;;;7.33;100.00
38400;BME280;24180;42.676;23.320;2022-12-28T07:46:31;95873.88;;;7.39;100.00
38400;BME280;24180;42.676;23.320;2022-12-28T07:48:57;95873.44;;;7.60;100.00
38400;BME280;24180;42.676;23.320;2022-12-28T07:51:28;95869.53;;;7.67;100.00
38400;BME280;24180;42.676;23.320;2022-12-28T07:53:54;95879.34;;;7.62;100.00
38400;BME280;24180;42.676;23.320;2022-12-28T07:56:21;95872.09;;;7.54;100.00
38400;BME280;24180;42.676;23.320;2022-12-28T07:58:48;95865.84;;;7.58;100.00
38400;BME280;24180;42.676;23.320;2022-12-28T08:01:15;95839.03;;;7.61;100.00
38400;BME280;24180;42.676;23.320;2022-12-28T08:03:41;95864.59;;;7.64;100.00
38400;BME280;24180;42.676;23.320;2022-12-28T08:06:08;95880.97;;;7.63;100.00
38400;BME280;24180;42.676;23.320;2022-12-28T08:08:35;95871.06;;;7.57;100.00
38400;BME280;24180;42.676;23.320;2022-12-28T08:11:06;95874.47;;;7.57;100.00
38400;BME280;24180;42.676;23.320;2022-12-28T08:13:34;95854.84;;;7.42;100.00
38400;BME280;24180;42.676;23.320;2022-12-28T08:15:59;95874.44;;;7.44;100.00
38400;BME280;24180;42.676;23.320;2022-12-28T08:18:25;95867.75;;;7.54;100.00
38400;BME280;24180;42.676;23.320;2022-12-28T08:20:52;95860.03;;;7.54;100.00
38400;BME280;24180;42.676;23.320;2022-12-28T08:23:17;95836.16;;;7.38;100.00
38400;BME280;24180;42.676;23.320;2022-12-28T08:25:43;95839.84;;;7.34;100.00
38400;BME280;24180;42.676;23.320;2022-12-28T08:28:08;95847.06;;;7.29;100.00
38400;BME280;24180;42.676;23.320;2022-12-28T08:30:34;95836.91;;;7.14;100.00
38400;BME280;24180;42.676;23.320;2022-12-28T08:32:59;95873.59;;;7.44;100.00
38400;BME280;24180;42.676;23.320;2022-12-28T08:35:25;95872.16;;;7.40;100.00
38400;BME280;24180;42.676;23.320;2022-12-28T08:37:53;95874.47;;;7.30;100.00
38400;BME280;24180;42.676;23.320;2022-12-28T08:40:19;95871.16;;;7.28;100.00
38400;BME280;24180;42.676;23.320;2022-12-28T08:42:44;95841.22;;;7.13;100.00
38400;BME280;24180;42.676;23.320;2022-12-28T08:45:10;95870.88;;;7.33;100.00
38400;BME280;24180;42.676;23.320;2022-12-28T08:47:36;95852.38;;;7.26;100.00
38400;BME280;24180;42.676;23.320;2022-12-28T08:50:02;95844.31;;;7.18;100.00
38400;BME280;24180;42.676;23.320;2022-12-28T08:52:27;95875.13;;;7.34;100.00
38400;BME280;24180;42.676;23.320;2022-12-28T08:54:53;95876.53;;;7.25;100.00
38400;BME280;24180;42.676;23.320;2022-12-28T08:57:18;95862.91;;;7.23;100.00
38400;BME280;24180;42.676;23.320;2022-12-28T08:59:43;95868.50;;;7.30;100.00
38400;BME280;24180;42.676;23.320;2022-12-28T09:02:12;95834.97;;;7.17;100.00
38400;BME280;24180;42.676;23.320;2022-12-28T09:04:37;95843.38;;;7.33;100.00
38400;BME280;24180;42.676;23.320;2022-12-28T09:07:03;95846.19;;;7.16;100.00
38400;BME280;24180;42.676;23.320;2022-12-28T09:09:28;95828.72;;;7.07;100.00
38400;BME280;24180;42.676;23.320;2022-12-28T09:11:54;95821.94;;;7.06;100.00
38400;BME280;24180;42.676;23.320;2022-12-28T09:14:19;95828.44;;;7.12;100.00
38400;BME280;24180;42.676;23.320;2022-12-28T09:16:44;95847.97;;;7.28;100.00
38400;BME280;24180;42.676;23.320;2022-12-28T09:19:13;95843.19;;;7.22;100.00
38400;BME280;24180;42.676;23.320;2022-12-28T09:21:40;95775.91;;;6.87;100.00
38400;BME280;24180;42.676;23.320;2022-12-28T09:24:05;95833.63;;;7.24;100.00
38400;BME280;24180;42.676;23.320;2022-12-28T09:26:34;95823.34;;;7.24;100.00
38400;BME280;24180;42.676;23.320;2022-12-28T09:29:01;95834.66;;;7.22;100.00
38400;BME280;24180;42.676;23.320;2022-12-28T09:31:29;95821.72;;;7.09;100.00
38400;BME280;24180;42.676;23.320;2022-12-28T09:33:55;95838.31;;;7.32;100.00
38400;BME280;24180;42.676;23.320;2022-12-28T09:36:33;95834.66;;;7.48;100.00
38400;BME280;24180;42.676;23.320;2022-12-28T09:39:22;95790.75;;;7.23;100.00
38400;BME280;24180;42.676;23.320;2022-12-28T09:41:53;95785.03;;;7.32;100.00
38400;BME280;24180;42.676;23.320;2022-12-28T09:47:21;95822.13;;;7.69;100.00
38400;BME280;24180;42.676;23.320;2022-12-28T09:55:27;95800.81;;;8.05;100.00
38400;BME280;24180;42.676;23.320;2022-12-28T09:57:55;95765.53;;;7.93;100.00
38400;BME280;24180;42.676;23.320;2022-12-28T10:00:24;95764.94;;;8.02;100.00
38400;BME280;24180;42.676;23.320;2022-12-28T10:03:14;95800.31;;;8.25;100.00
38400;BME280;24180;42.676;23.320;2022-12-28T10:05:41;95788.34;;;8.12;100.00
38400;BME280;24180;42.676;23.320;2022-12-28T10:08:11;95788.75;;;8.18;100.00
38400;BME280;24180;42.676;23.320;2022-12-28T10:10:39;95753.16;;;7.98;100.00
38400;BME280;24180;42.676;23.320;2022-12-28T10:13:23;95753.78;;;8.02;100.00
38400;BME280;24180;42.676;23.320;2022-12-28T10:15:49;95775.69;;;8.34;100.00
38400;BME280;24180;42.676;23.320;2022-12-28T10:18:20;95770.97;;;8.52;100.00
38400;BME280;24180;42.676;23.320;2022-12-28T10:20:47;95741.44;;;8.56;100.00
38400;BME280;24180;42.676;23.320;2022-12-28T10:23:16;95786.94;;;8.82;100.00
38400;BME280;24180;42.676;23.320;2022-12-28T10:25:45;95767.19;;;8.81;100.00
38400;BME280;24180;42.676;23.320;2022-12-28T10:28:11;95772.47;;;8.79;100.00
38400;BME280;24180;42.676;23.320;2022-12-28T10:30:45;95772.31;;;8.93;100.00
38400;BME280;24180;42.676;23.320;2022-12-28T10:33:16;95743.97;;;8.81;100.00
38400;BME280;24180;42.676;23.320;2022-12-28T10:35:50;95772.66;;;9.13;100.00
38400;BME280;24180;42.676;23.320;2022-12-28T10:38:23;95777.66;;;9.27;100.00
38400;BME280;24180;42.676;23.320;2022-12-28T10:40:59;95728.97;;;9.10;100.00
38400;BME280;24180;42.676;23.320;2022-12-28T10:43:36;95758.66;;;9.39;100.00
38400;BME280;24180;42.676;23.320;2022-12-28T10:46:06;95761.25;;;9.63;100.00
38400;BME280;24180;42.676;23.320;2022-12-28T10:48:38;95746.91;;;9.59;100.00
38400;BME280;24180;42.676;23.320;2022-12-28T10:51:13;95760.97;;;9.55;100.00
38400;BME280;24180;42.676;23.320;2022-12-28T10:53:44;95755.91;;;9.53;100.00
38400;BME280;24180;42.676;23.320;2022-12-28T11:01:25;95766.16;;;9.55;100.00
38400;BME280;24180;42.676;23.320;2022-12-28T11:06:21;95742.28;;;9.27;100.00
38400;BME280;24180;42.676;23.320;2022-12-28T11:11:40;95715.78;;;9.36;100.00
38400;BME280;24180;42.676;23.320;2022-12-28T11:14:50;95768.63;;;10.02;100.00
38400;BME280;24180;42.676;23.320;2022-12-28T11:17:19;95747.47;;;10.19;100.00
38400;BME280;24180;42.676;23.320;2022-12-28T11:19:50;95768.06;;;10.43;100.00
38400;BME280;24180;42.676;23.320;2022-12-28T11:22:26;95752.44;;;10.22;100.00
38400;BME280;24180;42.676;23.320;2022-12-28T11:24:53;95774.81;;;9.88;100.00
38400;BME280;24180;42.676;23.320;2022-12-28T11:27:20;95747.59;;;9.61;100.00
38400;BME280;24180;42.676;23.320;2022-12-28T11:29:48;95780.63;;;9.68;100.00
38400;BME280;24180;42.676;23.320;2022-12-28T11:32:22;95771.34;;;9.66;100.00
38400;BME280;24180;42.676;23.320;2022-12-28T11:34:50;95773.81;;;9.67;100.00
38400;BME280;24180;42.676;23.320;2022-12-28T11:37:16;95775.66;;;9.54;100.00
38400;BME280;24180;42.676;23.320;2022-12-28T11:39:44;95783.91;;;9.35;100.00
38400;BME280;24180;42.676;23.320;2022-12-28T11:42:12;95784.09;;;9.21;100.00
38400;BME280;24180;42.676;23.320;2022-12-28T11:44:57;95776.72;;;9.04;100.00
38400;BME280;24180;42.676;23.320;2022-12-28T11:47:28;95736.75;;;8.73;100.00
38400;BME280;24180;42.676;23.320;2022-12-28T11:53:02;95748.91;;;8.84;100.00
38400;BME280;24180;42.676;23.320;2022-12-28T11:55:39;95757.78;;;8.80;100.00
38400;BME280;24180;42.676;23.320;2022-12-28T12:00:56;95734.31;;;8.59;100.00
38400;BME280;24180;42.676;23.320;2022-12-28T12:11:47;95702.72;;;8.79;100.00
38400;BME280;24180;42.676;23.320;2022-12-28T12:14:15;95739.16;;;9.11;100.00
38400;BME280;24180;42.676;23.320;2022-12-28T12:16:51;95733.72;;;9.03;100.00
38400;BME280;24180;42.676;23.320;2022-12-28T12:19:25;95727.63;;;9.04;100.00
38400;BME280;24180;42.676;23.320;2022-12-28T12:22:11;95718.19;;;8.92;100.00
38400;BME280;24180;42.676;23.320;2022-12-28T12:27:33;95660.25;;;8.36;100.00
38400;BME280;24180;42.676;23.320;2022-12-28T12:30:04;95682.06;;;8.56;100.00
38400;BME280;24180;42.676;23.320;2022-12-28T12:35:05;95682.03;;;8.68;100.00
38400;BME280;24180;42.676;23.320;2022-12-28T12:57:16;95687.69;;;8.50;100.00
38400;BME280;24180;42.676;23.320;2022-12-28T12:59:55;95681.09;;;8.45;100.00
38400;BME280;24180;42.676;23.320;2022-12-28T13:05:05;95706.34;;;8.53;100.00
38400;BME280;24180;42.676;23.320;2022-12-28T13:07:32;95711.31;;;8.43;100.00
38400;BME280;24180;42.676;23.320;2022-12-28T13:10:00;95704.31;;;8.45;100.00
38400;BME280;24180;42.676;23.320;2022-12-28T13:12:26;95663.88;;;8.21;100.00
38400;BME280;24180;42.676;23.320;2022-12-28T13:15:00;95676.56;;;8.36;100.00
38400;BME280;24180;42.676;23.320;2022-12-28T13:17:27;95688.91;;;8.44;100.00
38400;BME280;24180;42.676;23.320;2022-12-28T13:20:19;95676.53;;;8.49;100.00
38400;BME280;24180;42.676;23.320;2022-12-28T13:22:46;95667.06;;;8.24;100.00
38400;BME280;24180;42.676;23.320;2022-12-28T13:25:32;95684.91;;;8.40;100.00
38400;BME280;24180;42.676;23.320;2022-12-28T13:28:00;95683.97;;;8.41;100.00
38400;BME280;24180;42.676;23.320;2022-12-28T13:30:25;95674.25;;;8.44;100.00
38400;BME280;24180;42.676;23.320;2022-12-28T13:32:59;95657.47;;;8.26;100.00
38400;BME280;24180;42.676;23.320;2022-12-28T13:35:30;95678.63;;;8.31;100.00
38400;BME280;24180;42.676;23.320;2022-12-28T13:38:04;95653.91;;;8.04;100.00
38400;BME280;24180;42.676;23.320;2022-12-28T13:40:37;95666.56;;;8.07;100.00
38400;BME280;24180;42.676;23.320;2022-12-28T13:45:56;95686.25;;;8.20;100.00
38400;BME280;24180;42.676;23.320;2022-12-28T13:48:24;95655.78;;;8.02;100.00
38400;BME280;24180;42.676;23.320;2022-12-28T13:50:51;95641.53;;;7.96;100.00
38400;BME280;24180;42.676;23.320;2022-12-28T13:53:28;95661.94;;;7.99;100.00
38400;BME280;24180;42.676;23.320;2022-12-28T13:55:57;95654.75;;;7.91;100.00
38400;BME280;24180;42.676;23.320;2022-12-28T13:58:38;95688.03;;;8.07;100.00
38400;BME280;24180;42.676;23.320;2022-12-28T14:01:08;95667.09;;;7.99;100.00
38400;BME280;24180;42.676;23.320;2022-12-28T14:03:38;95677.22;;;8.02;100.00
38400;BME280;24180;42.676;23.320;2022-12-28T14:06:05;95654.34;;;7.85;100.00
38400;BME280;24180;42.676;23.320;2022-12-28T14:08:35;95679.28;;;7.97;100.00
38400;BME280;24180;42.676;23.320;2022-12-28T14:11:02;95645.38;;;7.78;100.00
38400;BME280;24180;42.676;23.320;2022-12-28T14:13:32;95654.75;;;7.79;100.00
38400;BME280;24180;42.676;23.320;2022-12-28T14:16:00;95671.03;;;7.92;100.00
38400;BME280;24180;42.676;23.320;2022-12-28T14:18:27;95601.06;;;7.47;100.00
38400;BME280;24180;42.676;23.320;2022-12-28T14:20:55;95663.75;;;7.86;100.00
38400;BME280;24180;42.676;23.320;2022-12-28T14:23:29;95644.03;;;7.72;100.00
38400;BME280;24180;42.676;23.320;2022-12-28T14:25:58;95667.56;;;7.80;100.00
38400;BME280;24180;42.676;23.320;2022-12-28T14:30:56;95685.69;;;7.79;100.00
38400;BME280;24180;42.676;23.320;2022-12-28T14:33:29;95682.63;;;7.74;100.00
38400;BME280;24180;42.676;23.320;2022-12-28T14:35:58;95650.47;;;7.54;100.00
38400;BME280;24180;42.676;23.320;2022-12-28T14:38:32;95679.00;;;7.64;100.00